sensor_id;sensor_type;location;lat;lon;timestamp;temperature;humidity
64937;SHT30;51452;47.698;19.050;2023-04-01T00:02:16;12.25;65.34
64937;SHT30;51452;47.698;19.050;2023-04-01T00:04:42;12.19;64.68
64937;SHT30;51452;47.698;19.050;2023-04-01T00:07:08;12.23;63.59
64937;SHT30;51452;47.698;19.050;2023-04-01T00:09:33;12.26;63.49
64937;SHT30;51452;47.698;19.050;2023-04-01T00:12:00;12.26;63.41
64937;SHT30;51452;47.698;19.050;2023-04-01T00:14:26;12.28;62.95
64937;SHT30;51452;47.698;19.050;2023-04-01T00:16:51;12.29;62.93
64937;SHT30;51452;47.698;19.050;2023-04-01T00:19:17;12.30;63.66
64937;SHT30;51452;47.698;19.050;2023-04-01T00:21:43;12.23;62.10
64937;SHT30;51452;47.698;19.050;2023-04-01T00:24:08;12.29;62.27
64937;SHT30;51452;47.698;19.050;2023-04-01T00:26:34;12.33;62.51
64937;SHT30;51452;47.698;19.050;2023-04-01T00:28:59;12.33;64.58
64937;SHT30;51452;47.698;19.050;2023-04-01T00:31:25;12.29;65.77
64937;SHT30;51452;47.698;19.050;2023-04-01T00:33:51;12.29;67.05
64937;SHT30;51452;47.698;19.050;2023-04-01T00:36:19;12.29;67.71
64937;SHT30;51452;47.698;19.050;2023-04-01T00:38:45;12.18;67.91
64937;SHT30;51452;47.698;19.050;2023-04-01T00:41:12;12.11;68.94
64937;SHT30;51452;47.698;19.050;2023-04-01T00:43:44;12.05;69.37
64937;SHT30;51452;47.698;19.050;2023-04-01T00:46:10;11.98;69.35
64937;SHT30;51452;47.698;19.050;2023-04-01T00:48:41;11.94;69.31
64937;SHT30;51452;47.698;19.050;2023-04-01T00:51:10;11.95;69.63
64937;SHT30;51452;47.698;19.050;2023-04-01T00:53:41;11.91;70.44
64937;SHT30;51452;47.698;19.050;2023-04-01T00:56:55;11.73;69.31
64937;SHT30;51452;47.698;19.050;2023-04-01T00:59:06;11.71;69.82
64937;SHT30;51452;47.698;19.050;2023-04-01T01:01:34;11.65;67.23
64937;SHT30;51452;47.698;19.050;2023-04-01T01:04:00;11.73;69.19
64937;SHT30;51452;47.698;19.050;2023-04-01T01:12:07;11.45;67.64
64937;SHT30;51452;47.698;19.050;2023-04-01T01:20:09;11.64;64.86
64937;SHT30;51452;47.698;19.050;2023-04-01T01:25:49;11.82;64.94
64937;SHT30;51452;47.698;19.050;2023-04-01T01:34:40;11.77;63.47
64937;SHT30;51452;47.698;19.050;2023-04-01T01:37:13;11.89;63.70
64937;SHT30;51452;47.698;19.050;2023-04-01T01:39:40;11.94;63.49
64937;SHT30;51452;47.698;19.050;2023-04-01T01:42:09;11.86;63.60
64937;SHT30;51452;47.698;19.050;2023-04-01T01:44:36;11.88;63.25
64937;SHT30;51452;47.698;19.050;2023-04-01T01:47:03;11.92;63.68
64937;SHT30;51452;47.698;19.050;2023-04-01T01:49:29;12.02;63.44
64937;SHT30;51452;47.698;19.050;2023-04-01T01:51:57;12.09;62.79
64937;SHT30;51452;47.698;19.050;2023-04-01T01:54:23;12.05;62.75
64937;SHT30;51452;47.698;19.050;2023-04-01T01:56:51;11.99;63.12
64937;SHT30;51452;47.698;19.050;2023-04-01T01:59:20;12.02;62.86
64937;SHT30;51452;47.698;19.050;2023-04-01T02:01:52;12.02;63.33
64937;SHT30;51452;47.698;19.050;2023-04-01T02:04:21;12.15;63.37
64937;SHT30;51452;47.698;19.050;2023-04-01T02:07:00;12.09;63.18
64937;SHT30;51452;47.698;19.050;2023-04-01T02:09:27;12.11;63.42
64937;SHT30;51452;47.698;19.050;2023-04-01T02:12:01;12.09;62.78
64937;SHT30;51452;47.698;19.050;2023-04-01T02:17:22;12.04;61.23
64937;SHT30;51452;47.698;19.050;2023-04-01T02:19:52;12.08;62.23
64937;SHT30;51452;47.698;19.050;2023-04-01T02:22:25;12.09;61.41
64937;SHT30;51452;47.698;19.050;2023-04-01T02:24:54;12.14;61.67
64937;SHT30;51452;47.698;19.050;2023-04-01T02:27:20;12.14;61.25
64937;SHT30;51452;47.698;19.050;2023-04-01T02:29:46;12.21;61.86
64937;SHT30;51452;47.698;19.050;2023-04-01T02:32:12;12.19;61.41
64937;SHT30;51452;47.698;19.050;2023-04-01T02:34:38;12.25;62.45
64937;SHT30;51452;47.698;19.050;2023-04-01T02:37:04;12.18;62.03
64937;SHT30;51452;47.698;19.050;2023-04-01T02:39:29;12.19;60.84
64937;SHT30;51452;47.698;19.050;2023-04-01T02:41:55;12.02;61.45
64937;SHT30;51452;47.698;19.050;2023-04-01T02:44:21;12.02;61.43
64937;SHT30;51452;47.698;19.050;2023-04-01T02:46:46;12.06;61.54
64937;SHT30;51452;47.698;19.050;2023-04-01T02:49:12;12.15;61.44
64937;SHT30;51452;47.698;19.050;2023-04-01T02:51:37;12.21;61.54
64937;SHT30;51452;47.698;19.050;2023-04-01T02:54:03;12.29;61.63
64937;SHT30;51452;47.698;19.050;2023-04-01T02:56:28;12.30;63.31
64937;SHT30;51452;47.698;19.050;2023-04-01T02:58:54;12.33;63.72
64937;SHT30;51452;47.698;19.050;2023-04-01T03:01:20;12.29;64.01
64937;SHT30;51452;47.698;19.050;2023-04-01T03:03:46;12.29;63.18
64937;SHT30;51452;47.698;19.050;2023-04-01T03:06:13;12.26;62.89
64937;SHT30;51452;47.698;19.050;2023-04-01T03:08:39;12.16;61.58
64937;SHT30;51452;47.698;19.050;2023-04-01T03:11:05;12.11;61.75
64937;SHT30;51452;47.698;19.050;2023-04-01T03:13:31;12.09;62.48
64937;SHT30;51452;47.698;19.050;2023-04-01T03:15:56;11.96;62.21
64937;SHT30;51452;47.698;19.050;2023-04-01T03:18:22;11.91;61.97
64937;SHT30;51452;47.698;19.050;2023-04-01T03:20:47;11.91;61.88
64937;SHT30;51452;47.698;19.050;2023-04-01T03:23:13;11.75;62.14
64937;SHT30;51452;47.698;19.050;2023-04-01T03:25:39;11.78;62.46
64937;SHT30;51452;47.698;19.050;2023-04-01T03:28:04;11.70;62.40
64937;SHT30;51452;47.698;19.050;2023-04-01T03:30:29;11.64;62.54
64937;SHT30;51452;47.698;19.050;2023-04-01T03:32:59;11.61;62.47
64937;SHT30;51452;47.698;19.050;2023-04-01T03:35:26;11.58;63.03
64937;SHT30;51452;47.698;19.050;2023-04-01T03:37:52;11.57;62.82
64937;SHT30;51452;47.698;19.050;2023-04-01T03:40:18;11.47;62.82
64937;SHT30;51452;47.698;19.050;2023-04-01T03:42:43;11.47;63.37
64937;SHT30;51452;47.698;19.050;2023-04-01T03:45:09;11.45;62.89
64937;SHT30;51452;47.698;19.050;2023-04-01T03:47:37;11.41;63.13
64937;SHT30;51452;47.698;19.050;2023-04-01T03:50:03;11.44;63.38
64937;SHT30;51452;47.698;19.050;2023-04-01T03:52:29;11.48;63.34
64937;SHT30;51452;47.698;19.050;2023-04-01T03:54:54;11.38;63.71
64937;SHT30;51452;47.698;19.050;2023-04-01T03:57:19;11.31;63.94
64937;SHT30;51452;47.698;19.050;2023-04-01T03:59:45;11.28;63.90
64937;SHT30;51452;47.698;19.050;2023-04-01T04:02:10;11.28;64.68
64937;SHT30;51452;47.698;19.050;2023-04-01T04:04:35;11.35;63.93
64937;SHT30;51452;47.698;19.050;2023-04-01T04:07:01;11.30;64.08
64937;SHT30;51452;47.698;19.050;2023-04-01T04:09:27;11.23;64.29
64937;SHT30;51452;47.698;19.050;2023-04-01T04:11:52;11.20;64.46
64937;SHT30;51452;47.698;19.050;2023-04-01T04:14:18;11.27;64.26
64937;SHT30;51452;47.698;19.050;2023-04-01T04:16:43;11.20;64.34
64937;SHT30;51452;47.698;19.050;2023-04-01T04:19:08;11.24;64.83
64937;SHT30;51452;47.698;19.050;2023-04-01T04:21:34;11.14;64.53
64937;SHT30;51452;47.698;19.050;2023-04-01T04:24:01;11.14;64.51
64937;SHT30;51452;47.698;19.050;2023-04-01T04:26:27;11.13;64.50
64937;SHT30;51452;47.698;19.050;2023-04-01T04:28:54;11.09;64.79
64937;SHT30;51452;47.698;19.050;2023-04-01T04:31:24;11.10;64.41
64937;SHT30;51452;47.698;19.050;2023-04-01T04:33:50;11.02;64.86
64937;SHT30;51452;47.698;19.050;2023-04-01T04:36:16;11.07;64.76
64937;SHT30;51452;47.698;19.050;2023-04-01T04:38:42;11.14;64.70
64937;SHT30;51452;47.698;19.050;2023-04-01T04:41:11;11.20;64.94
64937;SHT30;51452;47.698;19.050;2023-04-01T04:43:38;11.12;64.68
64937;SHT30;51452;47.698;19.050;2023-04-01T04:46:08;11.12;64.61
64937;SHT30;51452;47.698;19.050;2023-04-01T04:48:33;11.07;65.23
64937;SHT30;51452;47.698;19.050;2023-04-01T04:50:59;11.12;65.02
64937;SHT30;51452;47.698;19.050;2023-04-01T04:53:24;11.06;64.91
64937;SHT30;51452;47.698;19.050;2023-04-01T04:55:51;11.02;65.04
64937;SHT30;51452;47.698;19.050;2023-04-01T04:58:17;10.95;65.34
64937;SHT30;51452;47.698;19.050;2023-04-01T05:00:43;10.95;65.77
64937;SHT30;51452;47.698;19.050;2023-04-01T05:03:10;10.89;65.51
64937;SHT30;51452;47.698;19.050;2023-04-01T05:05:36;10.89;65.55
64937;SHT30;51452;47.698;19.050;2023-04-01T05:08:01;10.92;65.76
64937;SHT30;51452;47.698;19.050;2023-04-01T05:10:27;10.95;65.82
64937;SHT30;51452;47.698;19.050;2023-04-01T05:12:53;10.91;65.76
64937;SHT30;51452;47.698;19.050;2023-04-01T05:15:18;10.96;66.12
64937;SHT30;51452;47.698;19.050;2023-04-01T05:17:44;10.96;65.91
64937;SHT30;51452;47.698;19.050;2023-04-01T05:20:12;11.09;65.90
64937;SHT30;51452;47.698;19.050;2023-04-01T05:22:37;11.04;65.80
64937;SHT30;51452;47.698;19.050;2023-04-01T05:25:03;11.06;65.77
64937;SHT30;51452;47.698;19.050;2023-04-01T05:27:29;11.16;65.74
64937;SHT30;51452;47.698;19.050;2023-04-01T05:29:54;11.16;65.50
64937;SHT30;51452;47.698;19.050;2023-04-01T05:32:19;11.14;65.87
64937;SHT30;51452;47.698;19.050;2023-04-01T05:34:45;11.23;65.90
64937;SHT30;51452;47.698;19.050;2023-04-01T05:37:10;11.17;65.66
64937;SHT30;51452;47.698;19.050;2023-04-01T05:39:37;11.13;66.00
64937;SHT30;51452;47.698;19.050;2023-04-01T05:42:04;11.19;65.91
64937;SHT30;51452;47.698;19.050;2023-04-01T05:44:30;11.12;66.36
64937;SHT30;51452;47.698;19.050;2023-04-01T05:46:55;11.14;66.35
64937;SHT30;51452;47.698;19.050;2023-04-01T05:49:21;11.30;65.82
64937;SHT30;51452;47.698;19.050;2023-04-01T05:51:46;11.34;65.50
64937;SHT30;51452;47.698;19.050;2023-04-01T05:54:11;11.38;65.83
64937;SHT30;51452;47.698;19.050;2023-04-01T05:56:37;11.35;65.97
64937;SHT30;51452;47.698;19.050;2023-04-01T05:59:02;11.41;65.77
64937;SHT30;51452;47.698;19.050;2023-04-01T06:01:28;11.35;64.96
64937;SHT30;51452;47.698;19.050;2023-04-01T06:03:53;11.44;65.14
64937;SHT30;51452;47.698;19.050;2023-04-01T06:06:29;11.57;65.01
64937;SHT30;51452;47.698;19.050;2023-04-01T06:08:58;11.60;64.74
64937;SHT30;51452;47.698;19.050;2023-04-01T06:14:11;11.64;64.09
64937;SHT30;51452;47.698;19.050;2023-04-01T06:16:54;11.68;64.49
64937;SHT30;51452;47.698;19.050;2023-04-01T06:28:20;12.15;63.16
64937;SHT30;51452;47.698;19.050;2023-04-01T06:41:35;12.29;62.49
64937;SHT30;51452;47.698;19.050;2023-04-01T06:44:28;12.33;62.80
64937;SHT30;51452;47.698;19.050;2023-04-01T06:50:01;12.22;61.82
64937;SHT30;51452;47.698;19.050;2023-04-01T06:52:35;12.26;62.19
64937;SHT30;51452;47.698;19.050;2023-04-01T06:57:55;12.33;61.60
64937;SHT30;51452;47.698;19.050;2023-04-01T07:03:20;12.35;61.95
64937;SHT30;51452;47.698;19.050;2023-04-01T07:05:46;12.32;62.01
64937;SHT30;51452;47.698;19.050;2023-04-01T07:08:17;12.40;61.74
64937;SHT30;51452;47.698;19.050;2023-04-01T07:10:53;12.37;61.25
64937;SHT30;51452;47.698;19.050;2023-04-01T07:13:29;12.42;60.88
64937;SHT30;51452;47.698;19.050;2023-04-01T07:16:03;12.53;61.70
64937;SHT30;51452;47.698;19.050;2023-04-01T07:18:54;12.67;61.68
64937;SHT30;51452;47.698;19.050;2023-04-01T07:22:01;12.81;60.28
64937;SHT30;51452;47.698;19.050;2023-04-01T07:24:37;12.70;61.71
64937;SHT30;51452;47.698;19.050;2023-04-01T07:27:09;12.79;61.06
64937;SHT30;51452;47.698;19.050;2023-04-01T07:29:34;12.87;60.70
64937;SHT30;51452;47.698;19.050;2023-04-01T07:37:17;12.97;60.51
64937;SHT30;51452;47.698;19.050;2023-04-01T07:51:19;12.80;60.48
64937;SHT30;51452;47.698;19.050;2023-04-01T07:53:57;12.87;60.54
64937;SHT30;51452;47.698;19.050;2023-04-01T08:07:18;13.00;60.00
64937;SHT30;51452;47.698;19.050;2023-04-01T08:15:27;13.29;59.48
64937;SHT30;51452;47.698;19.050;2023-04-01T08:20:58;13.38;59.54
64937;SHT30;51452;47.698;19.050;2023-04-01T08:23:29;13.52;59.44
64937;SHT30;51452;47.698;19.050;2023-04-01T08:26:31;13.66;59.86
64937;SHT30;51452;47.698;19.050;2023-04-01T08:29:06;13.62;60.00
64937;SHT30;51452;47.698;19.050;2023-04-01T08:31:43;13.29;59.95
64937;SHT30;51452;47.698;19.050;2023-04-01T08:34:42;13.36;60.63
64937;SHT30;51452;47.698;19.050;2023-04-01T08:37:19;13.24;60.23
64937;SHT30;51452;47.698;19.050;2023-04-01T08:39:49;13.22;60.99
64937;SHT30;51452;47.698;19.050;2023-04-01T08:42:43;13.26;61.23
64937;SHT30;51452;47.698;19.050;2023-04-01T08:45:20;13.36;59.78
64937;SHT30;51452;47.698;19.050;2023-04-01T08:58:53;13.67;61.17
64937;SHT30;51452;47.698;19.050;2023-04-01T09:06:51;13.65;59.81
64937;SHT30;51452;47.698;19.050;2023-04-01T09:36:52;13.76;59.56
64937;SHT30;51452;47.698;19.050;2023-04-01T09:39:37;13.91;58.68
64937;SHT30;51452;47.698;19.050;2023-04-01T09:45:01;14.23;58.79
64937;SHT30;51452;47.698;19.050;2023-04-01T09:47:57;14.10;56.96
64937;SHT30;51452;47.698;19.050;2023-04-01T09:50:46;14.06;58.05
64937;SHT30;51452;47.698;19.050;2023-04-01T10:01:49;13.38;60.03
64937;SHT30;51452;47.698;19.050;2023-04-01T10:18:53;13.69;59.92
64937;SHT30;51452;47.698;19.050;2023-04-01T10:29:01;13.79;59.32
64937;SHT30;51452;47.698;19.050;2023-04-01T11:13:06;14.14;56.74
64937;SHT30;51452;47.698;19.050;2023-04-01T11:15:41;14.04;56.99
64937;SHT30;51452;47.698;19.050;2023-04-01T11:19:02;13.90;57.14
64937;SHT30;51452;47.698;19.050;2023-04-01T11:33:19;14.10;57.50
64937;SHT30;51452;47.698;19.050;2023-04-01T11:35:56;14.16;57.93
64937;SHT30;51452;47.698;19.050;2023-04-01T11:38:28;14.17;57.93
64937;SHT30;51452;47.698;19.050;2023-04-01T11:46:25;14.38;56.81
64937;SHT30;51452;47.698;19.050;2023-04-01T11:55:01;14.41;58.19
64937;SHT30;51452;47.698;19.050;2023-04-01T12:11:03;14.69;53.78
64937;SHT30;51452;47.698;19.050;2023-04-01T12:13:48;14.76;55.50
64937;SHT30;51452;47.698;19.050;2023-04-01T12:16:34;14.86;55.80
64937;SHT30;51452;47.698;19.050;2023-04-01T12:22:14;15.13;54.56
64937;SHT30;51452;47.698;19.050;2023-04-01T12:24:49;15.25;54.29
64937;SHT30;51452;47.698;19.050;2023-04-01T12:27:22;15.20;52.91
64937;SHT30;51452;47.698;19.050;2023-04-01T12:30:26;15.13;52.53
64937;SHT30;51452;47.698;19.050;2023-04-01T12:36:19;14.95;54.00
64937;SHT30;51452;47.698;19.050;2023-04-01T12:39:16;15.06;51.88
64937;SHT30;51452;47.698;19.050;2023-04-01T12:44:56;15.00;51.90
64937;SHT30;51452;47.698;19.050;2023-04-01T12:47:45;15.00;51.17
64937;SHT30;51452;47.698;19.050;2023-04-01T12:55:40;14.76;51.53
64937;SHT30;51452;47.698;19.050;2023-04-01T13:01:27;15.00;51.74
64937;SHT30;51452;47.698;19.050;2023-04-01T13:29:57;15.51;51.50
64937;SHT30;51452;47.698;19.050;2023-04-01T13:32:52;15.64;51.03
64937;SHT30;51452;47.698;19.050;2023-04-01T13:35:26;15.61;51.03
64937;SHT30;51452;47.698;19.050;2023-04-01T13:38:12;15.57;51.57
64937;SHT30;51452;47.698;19.050;2023-04-01T13:43:32;15.54;49.95
64937;SHT30;51452;47.698;19.050;2023-04-01T13:49:12;15.47;50.91
64937;SHT30;51452;47.698;19.050;2023-04-01T13:55:07;15.29;50.70
64937;SHT30;51452;47.698;19.050;2023-04-01T14:20:29;15.73;50.10
64937;SHT30;51452;47.698;19.050;2023-04-01T14:37:02;15.93;49.81
64937;SHT30;51452;47.698;19.050;2023-04-01T14:48:37;16.05;47.35
64937;SHT30;51452;47.698;19.050;2023-04-01T14:51:39;16.06;46.32
64937;SHT30;51452;47.698;19.050;2023-04-01T14:56:45;16.08;46.25
64937;SHT30;51452;47.698;19.050;2023-04-01T15:04:24;16.06;46.23
64937;SHT30;51452;47.698;19.050;2023-04-01T15:07:07;15.98;46.24
64937;SHT30;51452;47.698;19.050;2023-04-01T15:12:38;16.12;47.03
64937;SHT30;51452;47.698;19.050;2023-04-01T15:29:51;15.74;49.13
64937;SHT30;51452;47.698;19.050;2023-04-01T15:32:54;15.83;49.05
64937;SHT30;51452;47.698;19.050;2023-04-01T15:37:54;15.70;49.84
64937;SHT30;51452;47.698;19.050;2023-04-01T15:40:42;15.64;50.10
64937;SHT30;51452;47.698;19.050;2023-04-01T15:43:21;15.66;50.31
64937;SHT30;51452;47.698;19.050;2023-04-01T15:49:20;15.50;49.92
64937;SHT30;51452;47.698;19.050;2023-04-01T15:57:28;15.58;50.62
64937;SHT30;51452;47.698;19.050;2023-04-01T16:00:30;15.58;49.81
64937;SHT30;51452;47.698;19.050;2023-04-01T16:03:16;15.47;50.70
64937;SHT30;51452;47.698;19.050;2023-04-01T16:06:14;15.57;50.98
64937;SHT30;51452;47.698;19.050;2023-04-01T16:14:23;15.32;50.99
64937;SHT30;51452;47.698;19.050;2023-04-01T16:27:14;15.50;50.29
64937;SHT30;51452;47.698;19.050;2023-04-01T16:32:31;15.20;50.87
64937;SHT30;51452;47.698;19.050;2023-04-01T16:37:48;15.35;50.11
64937;SHT30;51452;47.698;19.050;2023-04-01T16:56:55;15.44;51.39
64937;SHT30;51452;47.698;19.050;2023-04-01T17:02:17;15.15;48.95
64937;SHT30;51452;47.698;19.050;2023-04-01T17:05:04;15.03;49.59
64937;SHT30;51452;47.698;19.050;2023-04-01T17:10:18;14.99;50.39
64937;SHT30;51452;47.698;19.050;2023-04-01T17:18:27;14.72;51.65
64937;SHT30;51452;47.698;19.050;2023-04-01T17:23:35;14.58;54.51
64937;SHT30;51452;47.698;19.050;2023-04-01T17:26:26;14.41;52.79
64937;SHT30;51452;47.698;19.050;2023-04-01T17:32:31;14.47;53.19
64937;SHT30;51452;47.698;19.050;2023-04-01T17:34:46;14.44;53.29
64937;SHT30;51452;47.698;19.050;2023-04-01T17:43:00;14.14;55.76
64937;SHT30;51452;47.698;19.050;2023-04-01T17:45:35;14.13;54.93
64937;SHT30;51452;47.698;19.050;2023-04-01T17:51:20;13.94;55.85
64937;SHT30;51452;47.698;19.050;2023-04-01T17:59:16;13.76;56.23
64937;SHT30;51452;47.698;19.050;2023-04-01T18:02:02;13.72;55.67
64937;SHT30;51452;47.698;19.050;2023-04-01T18:04:40;13.70;55.27
64937;SHT30;51452;47.698;19.050;2023-04-01T18:15:44;13.55;57.05
64937;SHT30;51452;47.698;19.050;2023-04-01T18:23:29;13.32;58.28
64937;SHT30;51452;47.698;19.050;2023-04-01T18:26:23;13.18;58.53
64937;SHT30;51452;47.698;19.050;2023-04-01T18:31:49;13.04;58.71
64937;SHT30;51452;47.698;19.050;2023-04-01T18:34:57;13.07;58.76
64937;SHT30;51452;47.698;19.050;2023-04-01T18:37:36;13.03;59.09
64937;SHT30;51452;47.698;19.050;2023-04-01T18:43:48;12.95;59.18
64937;SHT30;51452;47.698;19.050;2023-04-01T18:46:36;12.85;59.87
64937;SHT30;51452;47.698;19.050;2023-04-01T18:49:29;12.79;59.92
64937;SHT30;51452;47.698;19.050;2023-04-01T18:52:07;12.77;60.00
64937;SHT30;51452;47.698;19.050;2023-04-01T18:57:52;12.67;59.99
64937;SHT30;51452;47.698;19.050;2023-04-01T19:00:26;12.68;60.22
64937;SHT30;51452;47.698;19.050;2023-04-01T19:03:20;12.64;60.71
64937;SHT30;51452;47.698;19.050;2023-04-01T19:05:52;12.60;60.88
64937;SHT30;51452;47.698;19.050;2023-04-01T19:08:29;12.57;60.92
64937;SHT30;51452;47.698;19.050;2023-04-01T19:16:16;12.32;61.78
64937;SHT30;51452;47.698;19.050;2023-04-01T19:19:03;12.33;61.25
64937;SHT30;51452;47.698;19.050;2023-04-01T19:26:58;12.32;61.34
64937;SHT30;51452;47.698;19.050;2023-04-01T19:40:55;12.32;61.52
64937;SHT30;51452;47.698;19.050;2023-04-01T19:48:57;12.37;60.84
64937;SHT30;51452;47.698;19.050;2023-04-01T19:57:05;12.40;60.10
64937;SHT30;51452;47.698;19.050;2023-04-01T20:08:13;12.45;60.51
64937;SHT30;51452;47.698;19.050;2023-04-01T20:16:01;12.33;60.59
64937;SHT30;51452;47.698;19.050;2023-04-01T20:23:43;12.05;61.10
64937;SHT30;51452;47.698;19.050;2023-04-01T20:26:20;12.01;61.36
64937;SHT30;51452;47.698;19.050;2023-04-01T20:29:18;11.94;62.03
64937;SHT30;51452;47.698;19.050;2023-04-01T20:44:52;11.77;63.18
64937;SHT30;51452;47.698;19.050;2023-04-01T20:53:26;11.61;63.67
64937;SHT30;51452;47.698;19.050;2023-04-01T21:01:24;11.43;63.90
64937;SHT30;51452;47.698;19.050;2023-04-01T21:03:59;11.41;63.74
64937;SHT30;51452;47.698;19.050;2023-04-01T21:07:10;11.51;63.50
64937;SHT30;51452;47.698;19.050;2023-04-01T21:15:25;11.37;64.04
64937;SHT30;51452;47.698;19.050;2023-04-01T21:17:58;11.40;64.04
64937;SHT30;51452;47.698;19.050;2023-04-01T21:20:49;11.17;64.11
64937;SHT30;51452;47.698;19.050;2023-04-01T21:26:26;11.34;64.27
64937;SHT30;51452;47.698;19.050;2023-04-01T21:37:42;11.45;63.45
64937;SHT30;51452;47.698;19.050;2023-04-01T21:45:37;11.55;62.91
64937;SHT30;51452;47.698;19.050;2023-04-01T21:48:21;11.60;62.66
64937;SHT30;51452;47.698;19.050;2023-04-01T21:51:13;11.63;62.22
64937;SHT30;51452;47.698;19.050;2023-04-01T22:13:02;11.35;61.44
64937;SHT30;51452;47.698;19.050;2023-04-01T22:24:20;11.30;61.57
64937;SHT30;51452;47.698;19.050;2023-04-01T22:27:24;11.31;61.80
64937;SHT30;51452;47.698;19.050;2023-04-01T22:30:11;11.34;61.74
64937;SHT30;51452;47.698;19.050;2023-04-01T22:32:45;11.27;61.93
64937;SHT30;51452;47.698;19.050;2023-04-01T22:38:09;11.31;62.19
64937;SHT30;51452;47.698;19.050;2023-04-01T22:40:44;11.27;62.19
64937;SHT30;51452;47.698;19.050;2023-04-01T22:43:16;11.26;62.25
64937;SHT30;51452;47.698;19.050;2023-04-01T22:45:56;11.19;62.71
64937;SHT30;51452;47.698;19.050;2023-04-01T22:56:27;11.02;63.44
64937;SHT30;51452;47.698;19.050;2023-04-01T22:59:02;10.91;63.99
64937;SHT30;51452;47.698;19.050;2023-04-01T23:01:34;10.99;63.64
64937;SHT30;51452;47.698;19.050;2023-04-01T23:04:04;10.92;63.85
64937;SHT30;51452;47.698;19.050;2023-04-01T23:06:38;10.91;63.82
64937;SHT30;51452;47.698;19.050;2023-04-01T23:17:18;10.75;64.78
64937;SHT30;51452;47.698;19.050;2023-04-01T23:25:16;10.65;65.49
64937;SHT30;51452;47.698;19.050;2023-04-01T23:28:39;10.61;65.94
64937;SHT30;51452;47.698;19.050;2023-04-01T23:35:58;10.51;66.61
64937;SHT30;51452;47.698;19.050;2023-04-01T23:38:36;10.44;66.74
64937;SHT30;51452;47.698;19.050;2023-04-01T23:41:04;10.42;67.09
64937;SHT30;51452;47.698;19.050;2023-04-01T23:43:33;10.45;66.92
64937;SHT30;51452;47.698;19.050;2023-04-01T23:46:01;10.42;67.17
64937;SHT30;51452;47.698;19.050;2023-04-01T23:48:35;10.35;67.45
64937;SHT30;51452;47.698;19.050;2023-04-01T23:51:02;10.37;67.46
64937;SHT30;51452;47.698;19.050;2023-04-01T23:53:31;10.40;67.36
64937;SHT30;51452;47.698;19.050;2023-04-01T23:55:58;10.37;67.45
64937;SHT30;51452;47.698;19.050;2023-04-01T23:58:25;10.37;67.43
